createdAt,value
2023-03-20T00:02:24.391Z,101328.84
2023-03-20T00:04:55.536Z,101333.13
2023-03-20T00:07:23.181Z,101333.06
2023-03-20T00:09:58.042Z,101326.91
2023-03-20T00:12:26.639Z,101325.06
2023-03-20T00:14:54.639Z,101324.25
2023-03-20T00:17:22.602Z,101315.56
2023-03-20T00:19:56.328Z,101318.19
2023-03-20T00:22:23.984Z,101312.84
2023-03-20T00:24:52.695Z,101316.44
2023-03-20T00:27:25.888Z,101313.94
2023-03-20T00:29:55.038Z,101307.91
2023-03-20T00:32:24.134Z,101307.84
2023-03-20T00:34:54.424Z,101308.69
2023-03-20T00:37:23.351Z,101306.31
2023-03-20T00:39:52.221Z,101301.88
2023-03-20T00:42:22.846Z,101303.66
2023-03-20T00:44:55.938Z,101301.72
2023-03-20T00:47:27.414Z,101297.34
2023-03-20T00:49:56.348Z,101300.88
2023-03-20T00:52:25.287Z,101303.41
2023-03-20T00:54:53.005Z,101292.13
2023-03-20T00:57:24.312Z,101290.75
2023-03-20T00:59:57.549Z,101297.84
2023-03-20T01:02:29.071Z,101294.44
2023-03-20T01:04:58.272Z,101297.00
2023-03-20T01:07:27.816Z,101298.66
2023-03-20T01:09:56.349Z,101293.63
2023-03-20T01:12:24.125Z,101291.81
2023-03-20T01:14:56.026Z,101296.91
2023-03-20T01:17:26.374Z,101296.88
2023-03-20T01:19:54.284Z,101296.22
2023-03-20T01:22:21.835Z,101302.22
2023-03-20T01:24:49.376Z,101290.81
2023-03-20T01:27:19.684Z,101292.50
2023-03-20T01:29:47.735Z,101289.00
2023-03-20T01:32:18.448Z,101293.47
2023-03-20T01:34:49.296Z,101291.84
2023-03-20T01:37:27.933Z,101296.41
2023-03-20T01:40:01.257Z,101285.22
2023-03-20T01:42:32.305Z,101289.63
2023-03-20T01:45:00.107Z,101284.47
2023-03-20T01:47:29.195Z,101287.94
2023-03-20T01:50:18.741Z,101296.66
2023-03-20T01:52:52.430Z,101289.63
2023-03-20T01:55:21.258Z,101296.69
2023-03-20T01:57:56.417Z,101299.19
2023-03-20T02:00:24.229Z,101301.72
2023-03-20T02:02:53.164Z,101299.19
2023-03-20T02:05:40.985Z,101293.84
2023-03-20T02:08:25.957Z,101301.84
2023-03-20T02:10:56.382Z,101295.59
2023-03-20T02:13:31.482Z,101294.63
2023-03-20T02:16:16.251Z,101293.91
2023-03-20T02:18:52.300Z,101304.50
2023-03-20T02:21:35.699Z,101302.78
2023-03-20T02:24:15.563Z,101305.25
2023-03-20T02:27:11.223Z,101298.00
2023-03-20T02:29:48.312Z,101297.94
2023-03-20T02:32:18.993Z,101298.84
2023-03-20T02:35:13.983Z,101290.97
2023-03-20T02:38:02.228Z,101299.06
2023-03-20T02:40:48.193Z,101298.19
2023-03-20T02:43:56.586Z,101300.78
2023-03-20T02:46:36.544Z,101291.97
2023-03-20T02:50:00.703Z,101297.22
2023-03-20T02:53:00.032Z,101292.72
2023-03-20T02:55:40.149Z,101302.44
2023-03-20T02:58:15.099Z,101297.19
2023-03-20T03:01:11.593Z,101291.09
2023-03-20T03:03:55.960Z,101295.41
2023-03-20T03:06:30.049Z,101288.38
2023-03-20T03:09:03.281Z,101289.31
2023-03-20T03:11:36.459Z,101284.28
2023-03-20T03:14:06.002Z,101285.34
2023-03-20T03:16:37.767Z,101281.00
2023-03-20T03:19:18.373Z,101290.41
2023-03-20T03:21:48.096Z,101288.56
2023-03-20T03:24:49.123Z,101285.03
2023-03-20T03:27:26.214Z,101299.91
2023-03-20T03:30:01.026Z,101294.03
2023-03-20T03:32:34.311Z,101298.44
2023-03-20T03:35:05.617Z,101297.56
2023-03-20T03:37:41.296Z,101298.47
2023-03-20T03:40:57.150Z,101295.72
2023-03-20T03:43:34.558Z,101295.75
2023-03-20T03:46:12.725Z,101297.50
2023-03-20T03:48:47.724Z,101303.50
2023-03-20T03:51:25.257Z,101299.94
2023-03-20T03:54:22.703Z,101307.09
2023-03-20T03:57:14.588Z,101305.25
2023-03-20T03:59:49.965Z,101308.75
2023-03-20T04:02:19.831Z,101312.25
2023-03-20T04:04:51.743Z,101303.50
2023-03-20T04:07:20.010Z,101308.75
2023-03-20T04:09:48.007Z,101299.16
2023-03-20T04:12:38.228Z,101295.72
2023-03-20T04:15:10.898Z,101306.91
2023-03-20T04:17:38.908Z,101306.84
2023-03-20T04:20:08.268Z,101310.28
2023-03-20T04:22:36.350Z,101307.69
2023-03-20T04:25:16.353Z,101312.91
2023-03-20T04:27:44.017Z,101308.56
2023-03-20T04:30:19.602Z,101299.91
2023-03-20T04:33:07.394Z,101308.50
2023-03-20T04:35:44.506Z,101308.53
2023-03-20T04:38:14.910Z,101305.06
2023-03-20T04:40:43.530Z,101307.69
2023-03-20T04:43:12.896Z,101310.41
2023-03-20T04:45:41.783Z,101309.50
2023-03-20T04:48:10.666Z,101306.81
2023-03-20T04:50:39.481Z,101309.53
2023-03-20T04:53:07.296Z,101311.28
2023-03-20T04:55:41.699Z,101308.75
2023-03-20T04:58:09.405Z,101306.00
2023-03-20T05:00:37.083Z,101317.25
2023-03-20T05:03:04.858Z,101323.28
2023-03-20T05:05:34.443Z,101321.72
2023-03-20T05:08:07.221Z,101312.25
2023-03-20T05:10:37.610Z,101318.34
2023-03-20T05:13:12.042Z,101316.59
2023-03-20T05:16:01.315Z,101314.94
2023-03-20T05:18:39.817Z,101314.00
2023-03-20T05:21:26.720Z,101315.84
2023-03-20T05:24:14.634Z,101321.00
2023-03-20T05:26:54.633Z,101315.63
2023-03-20T05:29:47.981Z,101323.22
2023-03-20T05:32:39.090Z,101313.72
2023-03-20T05:35:33.179Z,101309.31
2023-03-20T05:38:18.215Z,101305.63
2023-03-20T05:40:59.338Z,101309.91
2023-03-20T05:44:02.074Z,101312.09
2023-03-20T05:46:37.509Z,101312.13
2023-03-20T05:49:23.686Z,101313.03
2023-03-20T05:52:13.074Z,101311.16
2023-03-20T05:55:05.955Z,101307.66
2023-03-20T05:57:46.875Z,101311.16
2023-03-20T06:00:28.113Z,101316.59
2023-03-20T06:03:15.991Z,101312.34
2023-03-20T06:05:57.124Z,101313.28
2023-03-20T06:08:24.892Z,101309.03
2023-03-20T06:10:54.927Z,101315.09
2023-03-20T06:13:22.818Z,101309.88
2023-03-20T06:15:50.552Z,101325.31
2023-03-20T06:18:19.174Z,101332.03
2023-03-20T06:20:47.104Z,101326.81
2023-03-20T06:23:15.014Z,101335.44
2023-03-20T06:25:43.046Z,101328.50
2023-03-20T06:28:11.010Z,101329.44
2023-03-20T06:30:40.595Z,101332.72
2023-03-20T06:33:14.197Z,101325.81
2023-03-20T06:36:01.445Z,101323.47
2023-03-20T06:38:32.489Z,101331.09
2023-03-20T06:41:06.992Z,101338.28
2023-03-20T06:43:35.474Z,101324.38
2023-03-20T06:46:03.703Z,101325.06
2023-03-20T06:48:37.358Z,101324.91
2023-03-20T06:51:07.990Z,101331.03
2023-03-20T06:53:46.869Z,101324.94
2023-03-20T06:56:18.568Z,101328.31
2023-03-20T06:58:46.857Z,101322.09
2023-03-20T07:01:17.810Z,101322.22
2023-03-20T07:03:46.872Z,101324.66
2023-03-20T07:06:19.249Z,101324.66
2023-03-20T07:08:47.118Z,101326.47
2023-03-20T07:11:15.477Z,101332.72
2023-03-20T07:13:43.251Z,101328.50
2023-03-20T07:16:25.870Z,101327.59
2023-03-20T07:18:53.905Z,101329.41
2023-03-20T07:21:25.582Z,101324.22
2023-03-20T07:23:53.765Z,101323.88
2023-03-20T07:26:21.499Z,101322.94
2023-03-20T07:28:51.525Z,101318.47
2023-03-20T07:31:27.010Z,101321.88
2023-03-20T07:34:03.549Z,101325.28
2023-03-20T07:36:35.684Z,101321.03
2023-03-20T07:39:03.737Z,101321.03
2023-03-20T07:41:33.095Z,101326.41
2023-03-20T07:44:08.034Z,101330.66
2023-03-20T07:46:47.366Z,101326.16
2023-03-20T07:49:20.494Z,101324.16
2023-03-20T07:51:49.693Z,101315.19
2023-03-20T07:54:17.848Z,101316.53
2023-03-20T07:56:45.845Z,101312.31
2023-03-20T07:59:15.471Z,101308.72
2023-03-20T08:01:43.114Z,101310.03
2023-03-20T08:04:11.523Z,101303.78
2023-03-20T08:06:39.750Z,101307.91
2023-03-20T08:09:07.744Z,101304.91
2023-03-20T08:11:36.202Z,101306.44
2023-03-20T08:14:03.996Z,101300.06
2023-03-20T08:16:31.934Z,101293.91
2023-03-20T08:19:01.980Z,101291.50
2023-03-20T08:21:32.213Z,101293.47
2023-03-20T08:23:59.739Z,101290.41
2023-03-20T08:26:27.323Z,101282.97
2023-03-20T08:28:55.966Z,101289.56
2023-03-20T08:31:23.461Z,101282.56
2023-03-20T08:33:51.420Z,101285.97
2023-03-20T08:36:20.926Z,101284.03
2023-03-20T08:38:49.654Z,101291.16
2023-03-20T08:41:18.242Z,101291.69
2023-03-20T08:43:46.335Z,101292.59
2023-03-20T08:46:14.046Z,101301.56
2023-03-20T08:48:42.137Z,101288.13
2023-03-20T08:51:15.105Z,101286.41
2023-03-20T08:53:42.894Z,101281.47
2023-03-20T08:56:10.750Z,101286.88
2023-03-20T08:58:39.846Z,101287.72
2023-03-20T09:01:09.255Z,101283.19
2023-03-20T09:03:37.837Z,101285.44
2023-03-20T09:06:07.699Z,101287.22
2023-03-20T09:08:36.102Z,101287.75
2023-03-20T09:11:04.743Z,101279.22
2023-03-20T09:13:33.223Z,101274.44
2023-03-20T09:16:01.007Z,101274.97
2023-03-20T09:18:29.513Z,101277.44
2023-03-20T09:20:57.339Z,101275.28
2023-03-20T09:23:24.923Z,101273.66
2023-03-20T09:25:52.446Z,101259.44
2023-03-20T09:28:20.360Z,101265.97
2023-03-20T09:30:55.944Z,101264.91
2023-03-20T09:33:23.964Z,101264.13
2023-03-20T09:35:52.593Z,101258.88
2023-03-20T09:38:21.227Z,101257.91
2023-03-20T09:41:02.894Z,101259.34
2023-03-20T09:44:05.723Z,101256.81
2023-03-20T09:46:52.813Z,101265.56
2023-03-20T09:49:44.476Z,101250.78
2023-03-20T09:52:30.203Z,101257.84
2023-03-20T09:55:10.696Z,101258.72
2023-03-20T09:57:49.816Z,101255.81
2023-03-20T10:00:29.771Z,101251.22
2023-03-20T10:03:24.766Z,101250.19
2023-03-20T10:05:59.942Z,101251.78
2023-03-20T10:08:34.123Z,101256.72
2023-03-20T10:11:29.894Z,101255.22
2023-03-20T10:14:26.179Z,101250.44
2023-03-20T10:17:18.330Z,101242.78
2023-03-20T10:19:59.136Z,101243.69
2023-03-20T10:22:34.747Z,101244.72
2023-03-20T10:25:02.236Z,101232.31
2023-03-20T10:27:35.043Z,101231.34
2023-03-20T10:30:08.861Z,101230.66
2023-03-20T10:33:02.663Z,101227.03
2023-03-20T10:35:56.529Z,101223.38
2023-03-20T10:38:46.240Z,101217.69
2023-03-20T10:41:18.905Z,101218.63
2023-03-20T10:43:53.070Z,101208.09
2023-03-20T10:46:28.607Z,101209.97
2023-03-20T10:49:08.540Z,101200.09
2023-03-20T10:51:50.874Z,101207.16
2023-03-20T10:54:29.841Z,101197.78
2023-03-20T10:57:00.599Z,101202.53
2023-03-20T10:59:41.168Z,101202.63
2023-03-20T11:02:15.743Z,101200.06
2023-03-20T11:04:44.055Z,101201.22
2023-03-20T11:07:32.300Z,101196.50
2023-03-20T11:10:06.209Z,101195.06
2023-03-20T11:12:40.544Z,101192.75
2023-03-20T11:15:21.213Z,101193.56
2023-03-20T11:17:55.235Z,101177.91
2023-03-20T11:20:23.076Z,101179.94
2023-03-20T11:23:00.041Z,101184.03
2023-03-20T11:25:33.835Z,101183.66
2023-03-20T11:28:20.825Z,101186.38
2023-03-20T11:31:03.947Z,101178.50
2023-03-20T11:33:38.447Z,101168.78
2023-03-20T11:36:34.791Z,101170.56
2023-03-20T11:39:17.466Z,101167.50
2023-03-20T11:41:51.127Z,101165.13
2023-03-20T11:44:23.555Z,101160.59
2023-03-20T11:47:14.987Z,101162.69
2023-03-20T11:49:55.404Z,101151.81
2023-03-20T11:52:28.797Z,101160.16
2023-03-20T11:54:58.835Z,101159.41
2023-03-20T11:57:32.292Z,101159.44
2023-03-20T12:00:11.544Z,101161.47
2023-03-20T12:02:43.515Z,101160.41
2023-03-20T12:05:30.176Z,101148.63
2023-03-20T12:08:04.031Z,101156.31
2023-03-20T12:10:37.504Z,101148.13
2023-03-20T12:13:26.308Z,101155.84
2023-03-20T12:16:06.324Z,101146.19
2023-03-20T12:18:43.583Z,101139.41
2023-03-20T12:21:32.091Z,101138.25
2023-03-20T12:24:14.705Z,101137.78
2023-03-20T12:27:05.110Z,101136.75
2023-03-20T12:29:40.627Z,101130.34
2023-03-20T12:32:16.462Z,101129.41
2023-03-20T12:34:51.857Z,101125.03
2023-03-20T12:37:20.414Z,101124.91
2023-03-20T12:39:57.138Z,101124.81
2023-03-20T12:43:00.809Z,101126.63
2023-03-20T12:45:44.888Z,101119.50
2023-03-20T12:48:50.077Z,101119.28
2023-03-20T12:51:42.560Z,101119.56
2023-03-20T12:54:35.476Z,101116.84
2023-03-20T12:57:24.898Z,101122.59
2023-03-20T13:00:04.573Z,101119.44
2023-03-20T13:02:50.694Z,101117.31
2023-03-20T13:05:42.324Z,101119.47
2023-03-20T13:08:29.576Z,101116.53
2023-03-20T13:11:01.687Z,101121.75
2023-03-20T13:13:48.029Z,101107.88
2023-03-20T13:17:03.728Z,101113.38
2023-03-20T13:19:42.312Z,101111.44
2023-03-20T13:22:31.828Z,101112.63
2023-03-20T13:25:56.505Z,101116.75
2023-03-20T13:28:41.312Z,101119.19
2023-03-20T13:31:20.369Z,101117.00
2023-03-20T13:34:22.662Z,101107.28
2023-03-20T13:37:21.979Z,101110.97
2023-03-20T13:40:03.297Z,101112.34
2023-03-20T13:42:38.186Z,101099.31
2023-03-20T13:45:35.153Z,101103.88
2023-03-20T13:48:19.946Z,101106.63
2023-03-20T13:51:02.237Z,101108.13
2023-03-20T13:53:33.640Z,101096.91
2023-03-20T13:56:15.984Z,101094.22
2023-03-20T13:58:59.131Z,101090.41
2023-03-20T14:01:41.594Z,101094.72
2023-03-20T14:04:16.172Z,101093.16
2023-03-20T14:06:49.025Z,101094.88
2023-03-20T14:09:30.971Z,101085.00
2023-03-20T14:12:11.683Z,101083.88
2023-03-20T14:14:46.317Z,101074.16
2023-03-20T14:17:22.008Z,101081.31
2023-03-20T14:19:51.606Z,101069.50
2023-03-20T14:22:34.481Z,101071.81
2023-03-20T14:25:14.036Z,101070.97
2023-03-20T14:27:58.702Z,101068.22
2023-03-20T14:30:47.669Z,101069.22
2023-03-20T14:33:22.423Z,101065.84
2023-03-20T14:36:11.562Z,101060.72
2023-03-20T14:38:55.161Z,101066.06
2023-03-20T14:41:45.949Z,101069.16
2023-03-20T14:44:30.925Z,101066.19
2023-03-20T14:47:05.526Z,101066.06
2023-03-20T14:49:42.528Z,101060.81
2023-03-20T14:52:20.002Z,101061.56
2023-03-20T14:54:54.428Z,101062.00
2023-03-20T14:57:56.447Z,101058.31
2023-03-20T15:00:33.609Z,101061.31
2023-03-20T15:03:15.518Z,101061.22
2023-03-20T15:05:44.531Z,101060.94
2023-03-20T15:08:33.697Z,101057.34
2023-03-20T15:11:08.082Z,101061.59
2023-03-20T15:13:37.817Z,101071.38
2023-03-20T15:16:09.030Z,101074.03
2023-03-20T15:18:45.950Z,101072.72
2023-03-20T15:21:21.108Z,101077.22
2023-03-20T15:23:49.158Z,101070.38
2023-03-20T15:26:20.559Z,101073.78
2023-03-20T15:28:49.467Z,101078.19
2023-03-20T15:31:38.587Z,101089.50
2023-03-20T15:34:17.269Z,101093.09
2023-03-20T15:36:45.764Z,101093.28
2023-03-20T15:39:13.581Z,101090.66
2023-03-20T15:41:46.332Z,101099.81
2023-03-20T15:44:37.216Z,101100.72
2023-03-20T15:47:11.418Z,101099.06
2023-03-20T15:49:41.247Z,101100.72
2023-03-20T15:52:54.166Z,101101.56
2023-03-20T15:55:24.790Z,101101.97
2023-03-20T15:57:56.275Z,101095.81
2023-03-20T16:00:31.567Z,101096.72
2023-03-20T16:03:01.721Z,101099.59
2023-03-20T16:05:30.709Z,101104.19
2023-03-20T16:08:12.386Z,101109.34
2023-03-20T16:10:43.328Z,101111.38
2023-03-20T16:13:17.237Z,101107.97
2023-03-20T16:15:46.531Z,101109.69
2023-03-20T16:18:16.844Z,101115.75
2023-03-20T16:21:02.200Z,101111.53
2023-03-20T16:23:38.927Z,101117.88
2023-03-20T16:26:11.915Z,101110.88
2023-03-20T16:28:39.607Z,101115.34
2023-03-20T16:31:16.322Z,101118.88
2023-03-20T16:33:45.319Z,101115.41
2023-03-20T16:36:22.689Z,101113.63
2023-03-20T16:39:22.248Z,101117.13
2023-03-20T16:42:09.147Z,101109.47
2023-03-20T16:44:38.177Z,101108.59
2023-03-20T16:47:23.532Z,101100.81
2023-03-20T16:49:54.335Z,101105.03
2023-03-20T16:52:28.639Z,101101.41
2023-03-20T16:54:58.223Z,101118.16
2023-03-20T16:57:28.821Z,101103.22
2023-03-20T17:00:04.755Z,101104.13
2023-03-20T17:02:38.327Z,101106.06
2023-03-20T17:05:12.275Z,101107.03
2023-03-20T17:07:42.637Z,101108.94
2023-03-20T17:10:20.216Z,101108.13
2023-03-20T17:12:49.881Z,101109.09
2023-03-20T17:15:22.639Z,101115.38
2023-03-20T17:17:51.564Z,101116.25
2023-03-20T17:20:29.063Z,101124.19
2023-03-20T17:22:57.078Z,101125.09
2023-03-20T17:25:24.835Z,101138.31
2023-03-20T17:27:52.869Z,101136.03
2023-03-20T17:30:25.105Z,101140.47
2023-03-20T17:32:53.322Z,101145.72
2023-03-20T17:35:21.423Z,101138.69
2023-03-20T17:37:49.464Z,101140.31
2023-03-20T17:40:22.739Z,101137.81
2023-03-20T17:42:50.500Z,101133.41
2023-03-20T17:45:24.105Z,101137.72
2023-03-20T17:47:52.706Z,101143.91
2023-03-20T17:50:27.594Z,101135.25
2023-03-20T17:52:55.414Z,101131.00
2023-03-20T17:55:23.250Z,101131.91
2023-03-20T17:57:51.836Z,101133.72
2023-03-20T18:00:24.764Z,101133.75
2023-03-20T18:02:53.054Z,101136.28
2023-03-20T18:05:21.283Z,101132.75
2023-03-20T18:07:49.052Z,101134.47
2023-03-20T18:10:25.349Z,101137.09
2023-03-20T18:12:53.108Z,101133.56
2023-03-20T18:15:24.025Z,101132.06
2023-03-20T18:17:51.526Z,101127.91
2023-03-20T18:20:32.371Z,101123.66
2023-03-20T18:23:00.973Z,101124.47
2023-03-20T18:25:30.170Z,101116.53
2023-03-20T18:28:00.272Z,101128.66
2023-03-20T18:30:37.904Z,101123.38
2023-03-20T18:33:09.086Z,101126.84
2023-03-20T18:35:37.706Z,101125.19
2023-03-20T18:38:06.017Z,101123.66
2023-03-20T18:40:36.531Z,101127.25
2023-03-20T18:43:05.181Z,101123.00
2023-03-20T18:45:33.001Z,101129.84
2023-03-20T18:48:20.296Z,101126.44
2023-03-20T18:50:51.106Z,101124.72
2023-03-20T18:53:20.647Z,101125.63
2023-03-20T18:55:48.373Z,101123.72
2023-03-20T18:58:24.893Z,101121.19
2023-03-20T19:00:56.027Z,101103.88
2023-03-20T19:03:24.779Z,101104.81
2023-03-20T19:05:53.730Z,101105.66
2023-03-20T19:08:22.129Z,101100.50
2023-03-20T19:10:52.408Z,101096.03
2023-03-20T19:13:22.606Z,101095.13
2023-03-20T19:15:50.610Z,101095.91
2023-03-20T19:18:27.182Z,101096.59
2023-03-20T19:20:57.943Z,101094.75
2023-03-20T19:23:29.104Z,101102.59
2023-03-20T19:25:57.213Z,101089.69
2023-03-20T19:28:38.792Z,101090.66
2023-03-20T19:31:12.404Z,101094.38
2023-03-20T19:33:41.128Z,101093.41
2023-03-20T19:36:23.123Z,101093.66
2023-03-20T19:38:51.957Z,101096.38
2023-03-20T19:41:20.201Z,101101.59
2023-03-20T19:43:52.882Z,101110.31
2023-03-20T19:46:41.562Z,101105.84
2023-03-20T19:49:30.190Z,101101.75
2023-03-20T19:51:58.566Z,101104.31
2023-03-20T19:54:28.628Z,101102.50
2023-03-20T19:56:56.778Z,101110.34
2023-03-20T19:59:25.774Z,101103.50
2023-03-20T20:01:54.201Z,101107.03
2023-03-20T20:04:21.864Z,101100.16
2023-03-20T20:06:49.891Z,101102.81
2023-03-20T20:09:18.188Z,101096.69
2023-03-20T20:11:46.206Z,101091.63
2023-03-20T20:14:15.271Z,101097.84
2023-03-20T20:16:45.757Z,101097.00
2023-03-20T20:19:13.672Z,101089.16
2023-03-20T20:24:31.154Z,101083.28
2023-03-20T20:27:16.207Z,101081.50
2023-03-20T20:29:52.712Z,101075.47
2023-03-20T20:32:24.614Z,101069.38
2023-03-20T20:40:31.513Z,101068.72
2023-03-20T20:43:02.004Z,101064.34
2023-03-20T20:45:43.794Z,101066.22
2023-03-20T20:48:12.855Z,101064.56
2023-03-20T20:50:43.332Z,101063.75
2023-03-20T20:53:12.855Z,101063.78
2023-03-20T20:55:41.698Z,101058.56
2023-03-20T20:58:11.426Z,101052.56
2023-03-20T21:00:50.610Z,101056.00
2023-03-20T21:03:20.878Z,101059.56
2023-03-20T21:05:49.206Z,101055.25
2023-03-20T21:08:18.579Z,101053.66
2023-03-20T21:10:47.306Z,101060.56
2023-03-20T21:13:16.043Z,101064.03
2023-03-20T21:15:45.756Z,101064.25
2023-03-20T21:18:19.650Z,101054.81
2023-03-20T21:20:47.272Z,101052.25
2023-03-20T21:23:14.884Z,101056.59
2023-03-20T21:25:47.617Z,101057.44
2023-03-20T21:28:16.541Z,101041.78
2023-03-20T21:31:08.903Z,101039.19
2023-03-20T21:33:34.517Z,101039.16
2023-03-20T21:36:03.146Z,101034.88
2023-03-20T21:39:06.016Z,101034.06
2023-03-20T21:41:18.934Z,101033.19
2023-03-20T21:43:47.392Z,101029.63
2023-03-20T21:52:45.823Z,101046.56
2023-03-20T21:56:09.305Z,101042.59
2023-03-20T22:01:14.471Z,101058.38
2023-03-20T22:03:10.898Z,101063.75
2023-03-20T22:06:14.425Z,101050.56
2023-03-20T22:12:01.602Z,101059.91
2023-03-20T22:28:55.187Z,101035.66
2023-03-20T22:42:48.967Z,101028.91
2023-03-20T22:45:03.275Z,101035.88
2023-03-20T22:47:32.827Z,101024.59
2023-03-20T22:50:00.404Z,101016.78
2023-03-20T22:52:38.348Z,101028.03
2023-03-20T22:55:17.529Z,101023.69
2023-03-20T22:58:00.031Z,101034.03
2023-03-20T23:00:40.070Z,101024.53
2023-03-20T23:03:22.404Z,101024.56
2023-03-20T23:05:56.524Z,101020.22
2023-03-20T23:08:24.976Z,101023.69
2023-03-20T23:10:52.714Z,101015.94
2023-03-20T23:13:22.542Z,101021.16
2023-03-20T23:15:50.895Z,101015.97
2023-03-20T23:18:18.748Z,101025.63
2023-03-20T23:20:46.440Z,101017.69
2023-03-20T23:23:14.057Z,101014.25
2023-03-20T23:25:41.949Z,101002.94
2023-03-20T23:28:12.411Z,101008.16
2023-03-20T23:30:56.745Z,101003.81
2023-03-20T23:33:27.854Z,100999.50
2023-03-20T23:36:12.517Z,100990.88
2023-03-20T23:38:44.350Z,101001.44
2023-03-20T23:41:12.817Z,100995.31
2023-03-20T23:43:40.525Z,100994.50
2023-03-20T23:46:10.690Z,100984.91
2023-03-20T23:48:39.337Z,100989.34
2023-03-20T23:51:07.880Z,100990.13
2023-03-20T23:53:35.792Z,100983.19
2023-03-20T23:56:04.087Z,100980.66
2023-03-20T23:58:31.977Z,100980.66
